Terminal Aerodrome Forecast
Issued by NWS Shreveport, LA

Home | Current Version | Previous Version | Text Only | Print | Product List | Glossary On
Versions: 1 2 3 4 5 6 7 8 9 10 11 12 13 14 15 16 17 18 19 20 21 22 23
237
FTUS44 KSHV 220824 AAB
TAFELD
TAF AMD
KELD 220824Z 2208/2306 06007KT P6SM VCTS SCT005 OVC050CB
      TEMPO 2208/2211 2SM TSRA BR OVC004CB
     FM221300 05006KT 3SM BR VCSH OVC007
     FM221600 05006KT P6SM VCSH OVC010
     FM230300 13005KT 3SM BR VCSH OVC007=

USA.gov is the U.S. government's official web portal to all federal, state and local government web resources and services.